createdAt,value
2023-04-12T00:00:48.530Z,29.50
2023-04-12T00:01:48.554Z,30.50
2023-04-12T00:02:48.627Z,30.70
2023-04-12T00:03:48.651Z,28.60
2023-04-12T00:04:48.706Z,30.00
2023-04-12T00:05:48.490Z,23.90
2023-04-12T00:06:48.531Z,26.90
2023-04-12T00:07:48.455Z,25.20
2023-04-12T00:08:48.445Z,24.10
2023-04-12T00:09:48.433Z,21.90
2023-04-12T00:10:48.485Z,25.60
2023-04-12T00:11:48.413Z,24.40
2023-04-12T00:12:48.426Z,28.40
2023-04-12T00:13:48.394Z,25.50
2023-04-12T00:14:48.381Z,18.80
2023-04-12T00:15:48.378Z,25.70
2023-04-12T00:16:48.356Z,23.10
2023-04-12T00:17:48.395Z,26.60
2023-04-12T00:18:48.338Z,28.90
2023-04-12T00:19:48.322Z,29.60
2023-04-12T00:20:48.321Z,29.00
2023-04-12T00:21:48.301Z,23.50
2023-04-12T00:22:48.293Z,22.10
2023-04-12T00:23:48.305Z,22.60
2023-04-12T00:24:48.267Z,22.20
2023-04-12T00:25:48.271Z,25.80
2023-04-12T00:26:48.262Z,22.20
2023-04-12T00:27:48.240Z,20.40
2023-04-12T00:28:48.245Z,24.70
2023-04-12T00:29:48.212Z,20.20
2023-04-12T00:30:48.208Z,20.60
2023-04-12T00:31:48.429Z,25.40
2023-04-12T00:32:48.232Z,22.90
2023-04-12T00:33:48.224Z,21.00
2023-04-12T00:34:48.227Z,22.90
2023-04-12T00:35:48.284Z,22.00
2023-04-12T00:36:48.274Z,22.80
2023-04-12T00:37:48.251Z,22.70
2023-04-12T00:38:48.239Z,22.80
2023-04-12T00:39:48.300Z,24.80
2023-04-12T00:40:48.085Z,22.00
2023-04-12T00:41:48.077Z,25.50
2023-04-12T00:42:48.062Z,25.40
2023-04-12T00:43:48.059Z,25.40
2023-04-12T00:44:48.063Z,18.50
2023-04-12T00:45:48.035Z,20.50
2023-04-12T00:46:48.116Z,31.60
2023-04-12T00:47:48.027Z,20.60
2023-04-12T00:48:48.017Z,23.40
2023-04-12T00:49:47.989Z,22.00
2023-04-12T00:50:47.983Z,23.50
2023-04-12T00:51:47.966Z,21.20
2023-04-12T00:52:47.952Z,22.70
2023-04-12T00:53:47.961Z,26.90
2023-04-12T00:54:47.929Z,19.70
2023-04-12T00:55:47.923Z,21.20
2023-04-12T00:56:47.912Z,22.40
2023-04-12T00:57:47.895Z,21.00
2023-04-12T00:58:47.896Z,16.80
2023-04-12T00:59:47.871Z,22.50
2023-04-12T01:00:47.892Z,20.50
2023-04-12T01:01:47.937Z,23.00
2023-04-12T01:02:48.327Z,36.50
2023-04-12T01:03:47.890Z,20.20
2023-04-12T01:04:47.815Z,18.30
2023-04-12T01:05:47.812Z,25.60
2023-04-12T01:06:47.793Z,25.40
2023-04-12T01:07:47.788Z,22.30
2023-04-12T01:08:47.769Z,25.30
2023-04-12T01:09:47.820Z,24.80
2023-04-12T01:10:47.760Z,24.00
2023-04-12T01:11:47.751Z,20.40
2023-04-12T01:12:47.725Z,19.20
2023-04-12T01:13:47.715Z,15.70
2023-04-12T01:14:47.706Z,23.30
2023-04-12T01:15:47.694Z,22.60
2023-04-12T01:16:47.795Z,19.50
2023-04-12T01:17:47.762Z,22.60
2023-04-12T01:18:47.659Z,21.60
2023-04-12T01:19:47.655Z,23.30
2023-04-12T01:20:47.635Z,18.30
2023-04-12T01:21:47.634Z,17.10
2023-04-12T01:22:47.618Z,22.60
2023-04-12T01:23:47.614Z,21.10
2023-04-12T01:24:47.592Z,22.00
2023-04-12T01:25:47.618Z,16.80
2023-04-12T01:26:47.579Z,19.40
2023-04-12T01:27:47.578Z,24.40
2023-04-12T01:28:47.554Z,20.60
2023-04-12T01:29:47.545Z,26.00
2023-04-12T01:30:47.532Z,21.30
2023-04-12T01:31:47.529Z,20.90
2023-04-12T01:32:47.699Z,21.40
2023-04-12T01:33:47.501Z,21.10
2023-04-12T01:34:47.500Z,23.40
2023-04-12T01:35:47.515Z,18.10
2023-04-12T01:36:47.462Z,17.90
2023-04-12T01:37:47.458Z,18.60
2023-04-12T01:38:47.445Z,17.40
2023-04-12T01:39:47.442Z,14.50
2023-04-12T01:40:47.422Z,17.20
2023-04-12T01:41:47.418Z,17.20
2023-04-12T01:42:47.409Z,13.90
2023-04-12T01:43:47.393Z,20.20
2023-04-12T01:44:47.380Z,16.80
2023-04-12T01:45:47.389Z,19.50
2023-04-12T01:46:47.441Z,19.50
2023-04-12T01:47:47.384Z,19.60
2023-04-12T01:48:47.363Z,13.20
2023-04-12T01:49:47.329Z,14.00
2023-04-12T01:50:47.316Z,22.00
2023-04-12T01:51:47.305Z,15.90
2023-04-12T01:52:47.293Z,18.70
2023-04-12T01:53:47.285Z,19.30
2023-04-12T01:54:47.272Z,12.30
2023-04-12T01:55:47.264Z,16.60
2023-04-12T01:56:47.273Z,15.80
2023-04-12T01:57:47.242Z,18.60
2023-04-12T01:58:47.229Z,14.80
2023-04-12T01:59:47.225Z,19.20
2023-04-12T02:00:47.229Z,16.20
2023-04-12T02:01:47.356Z,19.00
2023-04-12T02:02:47.302Z,15.40
2023-04-12T02:03:47.319Z,14.80
2023-04-12T02:04:47.187Z,16.90
2023-04-12T02:05:47.156Z,12.50
2023-04-12T02:06:47.158Z,16.90
2023-04-12T02:07:47.139Z,15.40
2023-04-12T02:08:47.137Z,19.30
2023-04-12T02:09:47.123Z,18.90
2023-04-12T02:10:47.103Z,17.90
2023-04-12T02:11:47.099Z,21.20
2023-04-12T02:12:47.081Z,18.70
2023-04-12T02:13:47.078Z,22.10
2023-04-12T02:14:47.069Z,18.70
2023-04-12T02:15:47.048Z,13.70
2023-04-12T02:16:47.090Z,17.10
2023-04-12T02:17:47.085Z,16.10
2023-04-12T02:18:47.014Z,19.10
2023-04-12T02:19:47.007Z,16.80
2023-04-12T02:20:47.018Z,18.30
2023-04-12T02:21:46.989Z,18.50
2023-04-12T02:22:46.973Z,14.50
2023-04-12T02:23:46.967Z,17.30
2023-04-12T02:24:46.948Z,16.80
2023-04-12T02:25:46.937Z,17.70
2023-04-12T02:26:46.927Z,18.80
2023-04-12T02:27:46.923Z,15.60
2023-04-12T02:28:46.906Z,14.80
2023-04-12T02:29:46.894Z,17.30
2023-04-12T02:30:46.914Z,17.20
2023-04-12T02:31:46.880Z,14.60
2023-04-12T02:32:46.920Z,15.80
2023-04-12T02:33:46.860Z,15.30
2023-04-12T02:34:46.839Z,19.90
2023-04-12T02:35:46.871Z,18.10
2023-04-12T02:36:46.931Z,17.40
2023-04-12T02:37:46.832Z,13.60
2023-04-12T02:38:46.800Z,16.30
2023-04-12T02:39:46.796Z,17.50
2023-04-12T02:40:46.783Z,17.80
2023-04-12T02:41:46.770Z,15.10
2023-04-12T02:42:46.753Z,15.80
2023-04-12T02:43:46.743Z,18.90
2023-04-12T02:44:46.730Z,18.00
2023-04-12T02:45:46.758Z,16.30
2023-04-12T02:46:46.715Z,16.70
2023-04-12T02:47:46.715Z,15.50
2023-04-12T02:48:46.693Z,13.80
2023-04-12T02:49:46.685Z,18.90
2023-04-12T02:50:46.673Z,16.20
2023-04-12T02:51:46.671Z,19.00
2023-04-12T02:52:46.737Z,17.40
2023-04-12T02:53:46.641Z,17.20
2023-04-12T02:54:46.629Z,16.80
2023-04-12T02:55:46.620Z,23.20
2023-04-12T02:56:46.612Z,19.00
2023-04-12T02:57:46.596Z,20.50
2023-04-12T02:58:46.587Z,15.30
2023-04-12T02:59:46.595Z,12.40
2023-04-12T03:00:46.574Z,12.70
2023-04-12T03:01:46.836Z,16.80
2023-04-12T03:02:46.735Z,18.80
2023-04-12T03:03:46.643Z,19.60
2023-04-12T03:04:46.522Z,16.10
2023-04-12T03:05:46.519Z,20.00
2023-04-12T03:06:46.507Z,18.50
2023-04-12T03:07:46.506Z,15.80
2023-04-12T03:08:46.498Z,17.50
2023-04-12T03:09:46.465Z,19.90
2023-04-12T03:10:46.460Z,18.60
2023-04-12T03:11:46.457Z,18.80
2023-04-12T03:12:46.438Z,19.80
2023-04-12T03:13:46.437Z,22.40
2023-04-12T03:14:46.415Z,19.90
2023-04-12T03:15:46.456Z,16.30
2023-04-12T03:16:46.393Z,19.00
2023-04-12T03:17:46.419Z,18.60
2023-04-12T03:18:46.384Z,15.80
2023-04-12T03:19:46.384Z,16.20
2023-04-12T03:20:47.849Z,14.80
2023-04-12T03:21:46.333Z,15.30
2023-04-12T03:22:46.326Z,21.00
2023-04-12T03:23:46.313Z,18.10
2023-04-12T03:24:46.318Z,20.10
2023-04-12T03:25:46.291Z,14.20
2023-04-12T03:26:46.288Z,20.90
2023-04-12T03:27:46.281Z,18.30
2023-04-12T03:28:46.258Z,15.80
2023-04-12T03:29:46.254Z,14.20
2023-04-12T03:30:46.272Z,16.00
2023-04-12T03:31:46.222Z,15.80
2023-04-12T03:32:46.238Z,16.50
2023-04-12T03:33:46.210Z,16.60
2023-04-12T03:34:46.191Z,18.40
2023-04-12T03:35:46.205Z,22.70
2023-04-12T03:36:46.193Z,19.10
2023-04-12T03:37:46.153Z,18.20
2023-04-12T03:38:46.145Z,20.60
2023-04-12T03:39:46.131Z,19.30
2023-04-12T03:40:46.145Z,18.80
2023-04-12T03:41:46.109Z,14.50
2023-04-12T03:42:46.102Z,16.80
2023-04-12T03:43:46.089Z,16.50
2023-04-12T03:44:46.081Z,19.10
2023-04-12T03:45:46.065Z,22.20
2023-04-12T03:46:46.120Z,19.10
2023-04-12T03:47:46.092Z,14.70
2023-04-12T03:48:46.034Z,19.80
2023-04-12T03:49:54.213Z,21.70
2023-04-12T03:50:46.013Z,18.90
2023-04-12T03:51:45.998Z,19.30
2023-04-12T03:52:46.024Z,18.00
2023-04-12T03:53:45.979Z,18.40
2023-04-12T03:54:45.972Z,14.80
2023-04-12T03:55:45.967Z,20.10
2023-04-12T03:56:46.391Z,21.80
2023-04-12T03:57:45.933Z,16.00
2023-04-12T03:58:45.936Z,15.70
2023-04-12T03:59:45.915Z,17.40
2023-04-12T04:00:45.917Z,15.50
2023-04-12T04:01:45.913Z,15.70
2023-04-12T04:02:45.999Z,15.50
2023-04-12T04:03:46.610Z,16.80
2023-04-12T04:04:45.887Z,21.20
2023-04-12T04:05:45.845Z,18.20
2023-04-12T04:06:45.838Z,20.70
2023-04-12T04:07:45.835Z,21.30
2023-04-12T04:08:45.813Z,19.90
2023-04-12T04:09:45.799Z,15.20
2023-04-12T04:10:45.795Z,18.70
2023-04-12T04:11:45.775Z,18.50
2023-04-12T04:12:45.795Z,22.20
2023-04-12T04:13:45.756Z,18.20
2023-04-12T04:14:45.749Z,21.20
2023-04-12T04:15:45.732Z,20.30
2023-04-12T04:16:45.740Z,17.70
2023-04-12T04:17:45.732Z,19.50
2023-04-12T04:18:45.701Z,20.10
2023-04-12T04:19:45.691Z,16.40
2023-04-12T04:20:45.683Z,19.20
2023-04-12T04:21:45.669Z,21.30
2023-04-12T04:22:45.662Z,20.30
2023-04-12T04:23:45.660Z,19.40
2023-04-12T04:24:45.673Z,22.70
2023-04-12T04:25:45.627Z,19.00
2023-04-12T04:26:45.618Z,18.50
2023-04-12T04:27:45.604Z,15.80
2023-04-12T04:28:45.630Z,16.20
2023-04-12T04:29:45.745Z,15.30
2023-04-12T04:30:45.573Z,22.90
2023-04-12T04:31:45.633Z,18.80
2023-04-12T04:32:45.618Z,16.90
2023-04-12T04:33:45.541Z,18.30
2023-04-12T04:34:45.531Z,21.70
2023-04-12T04:35:45.555Z,15.50
2023-04-12T04:36:45.544Z,18.30
2023-04-12T04:37:45.502Z,16.50
2023-04-12T04:38:45.495Z,15.50
2023-04-12T04:39:45.478Z,16.20
2023-04-12T04:40:45.470Z,19.30
2023-04-12T04:41:45.469Z,17.60
2023-04-12T04:42:45.446Z,19.60
2023-04-12T04:43:45.436Z,14.60
2023-04-12T04:44:45.452Z,21.80
2023-04-12T04:45:45.421Z,17.20
2023-04-12T04:46:45.430Z,17.50
2023-04-12T04:47:45.431Z,16.10
2023-04-12T04:48:45.383Z,15.60
2023-04-12T04:49:45.374Z,13.20
2023-04-12T04:50:45.362Z,16.70
2023-04-12T04:51:45.408Z,15.80
2023-04-12T04:52:45.345Z,17.40
2023-04-12T04:53:45.327Z,19.20
2023-04-12T04:54:45.320Z,17.20
2023-04-12T04:55:45.314Z,15.90
2023-04-12T04:56:45.297Z,17.40
2023-04-12T04:57:45.446Z,14.20
2023-04-12T04:58:45.275Z,16.30
2023-04-12T04:59:45.273Z,15.80
2023-04-12T05:00:45.299Z,17.40
2023-04-12T05:01:45.370Z,20.80
2023-04-12T05:02:45.652Z,21.90
2023-04-12T05:03:45.320Z,15.30
2023-04-12T05:04:45.208Z,14.40
2023-04-12T05:05:45.346Z,17.90
2023-04-12T05:06:45.192Z,16.50
2023-04-12T05:07:45.176Z,17.80
2023-04-12T05:08:45.159Z,16.40
2023-04-12T05:09:45.152Z,21.10
2023-04-12T05:10:45.154Z,17.60
2023-04-12T05:11:45.148Z,15.00
2023-04-12T05:12:45.127Z,17.00
2023-04-12T05:13:45.105Z,16.20
2023-04-12T05:14:47.963Z,19.40
2023-04-12T05:15:46.132Z,18.60
2023-04-12T05:16:45.224Z,16.60
2023-04-12T05:17:45.090Z,15.30
2023-04-12T05:18:45.049Z,17.40
2023-04-12T05:19:45.031Z,17.10
2023-04-12T05:20:45.022Z,14.90
2023-04-12T05:21:45.028Z,13.20
2023-04-12T05:22:45.002Z,15.60
2023-04-12T05:23:44.990Z,14.40
2023-04-12T05:24:44.978Z,15.90
2023-04-12T05:25:44.966Z,15.10
2023-04-12T05:26:44.963Z,13.90
2023-04-12T05:27:44.947Z,15.50
2023-04-12T05:28:44.997Z,14.90
2023-04-12T05:29:44.927Z,12.50
2023-04-12T05:30:44.972Z,13.90
2023-04-12T05:31:44.909Z,16.90
2023-04-12T05:32:45.024Z,15.20
2023-04-12T05:33:44.876Z,12.70
2023-04-12T05:34:44.867Z,14.40
2023-04-12T05:35:44.871Z,13.70
2023-04-12T05:36:44.845Z,13.80
2023-04-12T05:37:44.834Z,15.00
2023-04-12T05:38:44.826Z,17.10
2023-04-12T05:39:44.835Z,11.00
2023-04-12T05:40:44.820Z,18.30
2023-04-12T05:41:44.794Z,12.80
2023-04-12T05:42:44.795Z,11.60
2023-04-12T05:43:44.774Z,10.20
2023-04-12T05:44:44.758Z,11.80
2023-04-12T05:45:44.753Z,10.30
2023-04-12T05:46:44.790Z,11.90
2023-04-12T05:47:44.757Z,9.70
2023-04-12T05:48:44.743Z,10.70
2023-04-12T05:49:44.698Z,12.90
2023-04-12T05:50:44.696Z,12.20
2023-04-12T05:51:44.764Z,11.70
2023-04-12T05:52:44.685Z,18.80
2023-04-12T05:53:44.667Z,13.10
2023-04-12T05:54:44.652Z,11.40
2023-04-12T05:55:44.634Z,15.30
2023-04-12T05:56:44.631Z,10.80
2023-04-12T05:57:44.611Z,11.70
2023-04-12T05:58:44.626Z,13.50
2023-04-12T05:59:44.602Z,11.20
2023-04-12T06:00:44.599Z,12.30
2023-04-12T06:01:44.636Z,11.20
2023-04-12T06:02:44.798Z,11.80
2023-04-12T06:03:44.687Z,9.50
2023-04-12T06:04:51.018Z,10.70
2023-04-12T06:05:45.674Z,12.70
2023-04-12T06:06:44.518Z,9.10
2023-04-12T06:07:44.502Z,12.60
2023-04-12T06:08:44.499Z,11.90
2023-04-12T06:09:44.479Z,17.40
2023-04-12T06:10:44.468Z,11.10
2023-04-12T06:11:44.653Z,12.80
2023-04-12T06:12:44.468Z,13.60
2023-04-12T06:13:44.437Z,11.90
2023-04-12T06:14:44.486Z,11.50
2023-04-12T06:15:44.544Z,10.30
2023-04-12T06:16:44.402Z,11.50
2023-04-12T06:17:44.417Z,11.40
2023-04-12T06:18:44.399Z,13.40
2023-04-12T06:19:44.379Z,11.70
2023-04-12T06:20:44.414Z,12.30
2023-04-12T06:21:44.356Z,11.00
2023-04-12T06:22:44.358Z,11.90
2023-04-12T06:23:44.339Z,13.00
2023-04-12T06:24:44.317Z,9.60
2023-04-12T06:25:44.316Z,9.90
2023-04-12T06:26:44.399Z,8.30
2023-04-12T06:27:44.328Z,10.70
2023-04-12T06:28:44.285Z,9.80
2023-04-12T06:29:44.260Z,10.00
2023-04-12T06:30:44.244Z,11.40
2023-04-12T06:31:44.352Z,8.70
2023-04-12T06:32:44.248Z,11.70
2023-04-12T06:33:44.214Z,8.00
2023-04-12T06:34:44.196Z,9.50
2023-04-12T06:35:44.413Z,8.20
2023-04-12T06:36:44.203Z,10.00
2023-04-12T06:37:44.166Z,9.40
2023-04-12T06:38:44.154Z,12.40
2023-04-12T06:39:44.160Z,9.80
2023-04-12T06:40:44.136Z,11.40
2023-04-12T06:41:44.154Z,9.70
2023-04-12T06:42:44.122Z,12.20
2023-04-12T06:43:44.111Z,11.50
2023-04-12T06:44:44.100Z,10.40
2023-04-12T06:45:44.074Z,10.30
2023-04-12T06:46:44.085Z,10.20
2023-04-12T06:47:44.071Z,11.50
2023-04-12T06:48:44.043Z,10.70
2023-04-12T06:49:44.049Z,9.30
2023-04-12T06:50:44.024Z,9.20
2023-04-12T06:51:44.000Z,10.50
2023-04-12T06:52:44.074Z,9.80
2023-04-12T06:53:43.991Z,9.30
2023-04-12T06:54:44.005Z,8.70
2023-04-12T06:55:43.961Z,12.30
2023-04-12T06:56:43.961Z,8.90
2023-04-12T06:57:43.936Z,8.40
2023-04-12T06:58:43.936Z,9.20
2023-04-12T06:59:43.912Z,10.80
2023-04-12T07:00:43.919Z,11.30
2023-04-12T07:01:44.046Z,10.30
2023-04-12T07:02:44.121Z,10.30
2023-04-12T07:03:44.030Z,10.50
2023-04-12T07:04:43.859Z,8.40
2023-04-12T07:05:43.864Z,12.00
2023-04-12T07:06:43.852Z,10.20
2023-04-12T07:07:43.825Z,16.60
2023-04-12T07:08:43.872Z,12.70
2023-04-12T07:09:43.809Z,11.60
2023-04-12T07:10:43.794Z,11.80
2023-04-12T07:11:43.816Z,9.40
2023-04-12T07:12:43.774Z,9.50
2023-04-12T07:13:43.772Z,10.70
2023-04-12T07:14:44.724Z,11.90
2023-04-12T07:15:43.753Z,10.60
2023-04-12T07:16:43.751Z,10.60
2023-04-12T07:17:43.765Z,10.60
2023-04-12T07:18:43.727Z,9.30
2023-04-12T07:19:43.692Z,8.80
2023-04-12T07:20:43.687Z,10.10
2023-04-12T07:21:43.665Z,7.60
2023-04-12T07:22:43.671Z,11.20
2023-04-12T07:23:43.811Z,10.90
2023-04-12T07:24:43.668Z,6.50
2023-04-12T07:25:43.625Z,9.30
2023-04-12T07:26:43.614Z,8.90
2023-04-12T07:27:43.600Z,11.00
2023-04-12T07:28:43.609Z,8.90
2023-04-12T07:29:43.583Z,10.30
2023-04-12T07:30:43.585Z,10.90
2023-04-12T07:31:43.554Z,6.90
2023-04-12T07:32:43.626Z,10.10
2023-04-12T07:33:43.758Z,9.00
2023-04-12T07:34:43.630Z,7.50
2023-04-12T07:35:43.578Z,8.60
2023-04-12T07:36:43.586Z,10.30
2023-04-12T07:37:43.584Z,8.00
2023-04-12T07:38:43.590Z,9.40
2023-04-12T07:39:43.661Z,10.90
2023-04-12T07:40:43.765Z,10.90
2023-04-12T07:41:43.602Z,9.10
2023-04-12T07:42:43.461Z,9.30
2023-04-12T07:43:43.431Z,8.00
2023-04-12T07:44:43.412Z,10.60
2023-04-12T07:45:43.467Z,8.10
2023-04-12T07:46:43.390Z,10.30
2023-04-12T07:47:43.414Z,8.80
2023-04-12T07:48:43.366Z,9.10
2023-04-12T07:49:43.364Z,8.70
2023-04-12T07:50:43.346Z,8.60
2023-04-12T07:51:43.333Z,8.90
2023-04-12T07:52:43.330Z,9.30
2023-04-12T07:53:43.313Z,6.10
2023-04-12T07:54:43.312Z,7.60
2023-04-12T07:55:43.294Z,7.30
2023-04-12T07:56:43.307Z,7.40
2023-04-12T07:57:43.272Z,9.60
2023-04-12T07:58:43.255Z,9.90
2023-04-12T07:59:43.255Z,9.20
2023-04-12T08:00:43.236Z,8.50
2023-04-12T08:01:43.242Z,11.80
2023-04-12T08:02:43.364Z,10.10
2023-04-12T08:03:43.325Z,6.60
2023-04-12T08:04:43.188Z,8.60
2023-04-12T08:05:43.205Z,7.80
2023-04-12T08:06:43.165Z,9.30
2023-04-12T08:07:43.151Z,11.60
2023-04-12T08:08:43.144Z,12.10
2023-04-12T08:09:43.140Z,6.10
2023-04-12T08:10:43.130Z,13.30
2023-04-12T08:11:43.109Z,9.20
2023-04-12T08:12:43.123Z,8.80
2023-04-12T08:13:43.085Z,11.30
2023-04-12T08:14:43.088Z,10.10
2023-04-12T08:15:43.086Z,9.60
2023-04-12T08:16:43.055Z,9.40
2023-04-12T08:17:43.083Z,10.90
2023-04-12T08:18:43.035Z,8.20
2023-04-12T08:19:43.026Z,10.20
2023-04-12T08:20:43.011Z,7.70
2023-04-12T08:21:42.998Z,7.60
2023-04-12T08:22:42.979Z,8.70
2023-04-12T08:23:42.983Z,9.10
2023-04-12T08:24:42.965Z,9.60
2023-04-12T08:25:42.959Z,9.70
2023-04-12T08:26:42.945Z,17.20
2023-04-12T08:27:42.939Z,10.60
2023-04-12T08:28:43.040Z,9.00
2023-04-12T08:29:42.911Z,8.60
2023-04-12T08:30:42.909Z,8.50
2023-04-12T08:31:42.914Z,6.90
2023-04-12T08:32:42.911Z,8.90
2023-04-12T08:33:42.862Z,9.80
2023-04-12T08:34:44.852Z,9.10
2023-04-12T08:35:42.871Z,8.50
2023-04-12T08:36:42.823Z,10.90
2023-04-12T08:37:42.820Z,8.30
2023-04-12T08:38:46.247Z,9.30
2023-04-12T08:39:42.796Z,6.80
2023-04-12T08:40:42.780Z,8.30
2023-04-12T08:41:42.793Z,12.60
2023-04-12T08:42:42.791Z,9.70
2023-04-12T08:43:42.756Z,9.30
2023-04-12T08:44:42.762Z,8.50
2023-04-12T08:45:42.728Z,8.10
2023-04-12T08:46:42.753Z,12.10
2023-04-12T08:47:42.719Z,8.00
2023-04-12T08:48:42.727Z,10.80
2023-04-12T08:49:42.686Z,11.00
2023-04-12T08:50:42.693Z,9.70
2023-04-12T08:51:42.679Z,9.00
2023-04-12T08:52:42.691Z,6.60
2023-04-12T08:53:42.648Z,7.60
2023-04-12T08:54:42.731Z,9.50
2023-04-12T08:55:42.615Z,7.60
2023-04-12T08:56:42.606Z,10.40
2023-04-12T08:57:42.618Z,9.90
2023-04-12T08:58:42.612Z,6.90
2023-04-12T08:59:42.588Z,6.90
2023-04-12T09:00:42.767Z,9.20
2023-04-12T09:01:42.709Z,9.60
2023-04-12T09:02:42.699Z,7.70
2023-04-12T09:03:42.699Z,9.00
2023-04-12T09:04:42.572Z,8.70
2023-04-12T09:05:42.527Z,8.50
2023-04-12T09:06:42.491Z,10.00
2023-04-12T09:07:42.482Z,6.70
2023-04-12T09:08:42.468Z,11.60
2023-04-12T09:09:42.469Z,8.10
2023-04-12T09:10:42.496Z,9.00
2023-04-12T09:11:42.447Z,11.00
2023-04-12T09:12:42.423Z,9.30
2023-04-12T09:13:42.428Z,8.40
2023-04-12T09:14:42.400Z,9.10
2023-04-12T09:15:42.395Z,8.60
2023-04-12T09:16:42.497Z,9.50
2023-04-12T09:17:42.623Z,9.50
2023-04-12T09:18:42.375Z,7.00
2023-04-12T09:19:42.346Z,10.70
2023-04-12T09:20:42.338Z,10.50
2023-04-12T09:21:42.334Z,11.00
2023-04-12T09:22:42.325Z,9.20
2023-04-12T09:23:42.308Z,7.10
2023-04-12T09:24:42.288Z,8.60
2023-04-12T09:25:42.278Z,6.70
2023-04-12T09:26:42.444Z,8.20
2023-04-12T09:27:42.268Z,8.10
2023-04-12T09:28:42.274Z,9.20
2023-04-12T09:29:42.241Z,9.20
2023-04-12T09:30:42.231Z,5.70
2023-04-12T09:31:42.262Z,8.00
2023-04-12T09:32:42.312Z,7.60
2023-04-12T09:33:42.205Z,7.40
2023-04-12T09:34:42.180Z,8.40
2023-04-12T09:35:42.256Z,7.20
2023-04-12T09:36:42.164Z,6.70
2023-04-12T09:37:42.142Z,6.20
2023-04-12T09:38:42.148Z,10.00
2023-04-12T09:39:42.140Z,6.80
2023-04-12T09:40:42.129Z,8.50
2023-04-12T09:41:42.121Z,8.20
2023-04-12T09:42:42.101Z,7.10
2023-04-12T09:43:42.104Z,7.40
2023-04-12T09:44:42.089Z,6.50
2023-04-12T09:45:42.062Z,8.40
2023-04-12T09:46:42.087Z,12.80
2023-04-12T09:47:42.075Z,11.60
2023-04-12T09:48:42.114Z,9.00
2023-04-12T09:49:42.012Z,9.90
2023-04-12T09:50:42.014Z,8.10
2023-04-12T09:51:42.006Z,8.90
2023-04-12T09:52:41.978Z,7.80
2023-04-12T09:53:41.986Z,7.20
2023-04-12T09:54:41.972Z,9.10
2023-04-12T09:55:41.939Z,6.50
2023-04-12T09:56:41.939Z,8.40
2023-04-12T09:57:41.932Z,10.80
2023-04-12T09:58:41.908Z,6.40
2023-04-12T09:59:41.912Z,6.90
2023-04-12T10:00:41.901Z,9.90
2023-04-12T10:01:42.066Z,7.30
2023-04-12T10:02:42.683Z,7.90
2023-04-12T10:03:42.013Z,9.70
2023-04-12T10:04:42.069Z,12.70
2023-04-12T10:05:41.835Z,11.40
2023-04-12T10:06:41.812Z,7.00
2023-04-12T10:07:41.806Z,9.70
2023-04-12T10:08:41.803Z,8.80
2023-04-12T10:09:41.821Z,7.50
2023-04-12T10:10:41.778Z,7.50
2023-04-12T10:11:41.818Z,6.10
2023-04-12T10:12:41.752Z,9.00
2023-04-12T10:13:41.739Z,7.30
2023-04-12T10:14:41.738Z,10.60
2023-04-12T10:15:41.758Z,13.50
2023-04-12T10:16:41.894Z,7.70
2023-04-12T10:17:41.706Z,7.90
2023-04-12T10:18:41.686Z,8.60
2023-04-12T10:19:41.763Z,7.30
2023-04-12T10:20:41.762Z,7.70
2023-04-12T10:21:41.664Z,8.40
2023-04-12T10:22:41.651Z,6.30
2023-04-12T10:23:41.670Z,7.90
2023-04-12T10:24:41.620Z,7.90
2023-04-12T10:25:41.603Z,10.00
2023-04-12T10:26:41.588Z,5.50
2023-04-12T10:27:41.598Z,7.40
2023-04-12T10:28:41.569Z,7.50
2023-04-12T10:29:41.561Z,9.70
2023-04-12T10:30:41.640Z,6.40
2023-04-12T10:31:41.614Z,6.80
2023-04-12T10:32:41.547Z,8.00
2023-04-12T10:33:41.543Z,10.70
2023-04-12T10:34:41.512Z,9.20
2023-04-12T10:35:41.512Z,10.70
2023-04-12T10:36:41.506Z,9.60
2023-04-12T10:37:41.470Z,6.30
2023-04-12T10:38:41.459Z,8.20
2023-04-12T10:39:41.475Z,6.10
2023-04-12T10:40:41.440Z,6.60
2023-04-12T10:41:41.455Z,8.60
2023-04-12T10:42:41.443Z,9.10
2023-04-12T10:43:41.436Z,7.60
2023-04-12T10:44:41.426Z,10.20
2023-04-12T10:45:41.386Z,8.80
2023-04-12T10:46:41.417Z,7.80
2023-04-12T10:47:41.422Z,8.40
2023-04-12T10:48:41.392Z,6.20
2023-04-12T10:49:41.336Z,7.70
2023-04-12T10:50:41.331Z,5.40
2023-04-12T10:51:41.325Z,8.60
2023-04-12T10:52:41.320Z,5.90
2023-04-12T10:53:41.325Z,8.10
2023-04-12T10:54:41.304Z,7.40
2023-04-12T10:55:41.362Z,7.20
2023-04-12T10:56:41.286Z,6.90
2023-04-12T10:57:41.251Z,8.80
2023-04-12T10:58:41.271Z,11.40
2023-04-12T10:59:47.301Z,9.30
2023-04-12T11:00:41.288Z,6.30
2023-04-12T11:01:41.393Z,7.80
2023-04-12T11:02:41.282Z,8.50
2023-04-12T11:03:41.422Z,6.60
2023-04-12T11:04:41.243Z,7.10
2023-04-12T11:05:41.316Z,7.50
2023-04-12T11:06:41.138Z,10.80
2023-04-12T11:07:41.157Z,8.00
2023-04-12T11:08:41.150Z,8.30
2023-04-12T11:09:41.138Z,8.00
2023-04-12T11:10:41.106Z,7.20
2023-04-12T11:11:41.198Z,7.90
2023-04-12T11:12:41.111Z,7.10
2023-04-12T11:13:41.083Z,12.00
2023-04-12T11:14:41.362Z,11.70
2023-04-12T11:15:41.067Z,11.50
2023-04-12T11:16:41.168Z,11.00
2023-04-12T11:17:41.056Z,9.20
2023-04-12T11:18:41.089Z,10.70
2023-04-12T11:19:41.000Z,12.70
2023-04-12T11:20:41.016Z,15.10
2023-04-12T11:21:41.011Z,19.80
2023-04-12T11:22:41.033Z,10.10
2023-04-12T11:23:40.960Z,6.90
2023-04-12T11:24:40.956Z,10.90
2023-04-12T11:25:40.936Z,10.20
2023-04-12T11:26:40.916Z,11.80
2023-04-12T11:27:40.918Z,8.90
2023-04-12T11:28:40.954Z,8.40
2023-04-12T11:29:40.889Z,13.80
2023-04-12T11:30:40.877Z,9.00
2023-04-12T11:31:40.904Z,10.40
2023-04-12T11:32:40.938Z,11.10
2023-04-12T11:33:40.839Z,10.00
2023-04-12T11:34:40.828Z,10.20
2023-04-12T11:35:40.811Z,8.40
2023-04-12T11:36:40.799Z,9.70
2023-04-12T11:37:40.800Z,7.90
2023-04-12T11:38:40.870Z,8.70
2023-04-12T11:39:40.774Z,8.40
2023-04-12T11:40:40.877Z,9.20
2023-04-12T11:41:40.744Z,8.60
2023-04-12T11:42:40.733Z,10.50
2023-04-12T11:43:40.722Z,10.70
2023-04-12T11:44:55.120Z,9.60
2023-04-12T11:45:41.749Z,7.70
2023-04-12T11:46:40.692Z,8.50
2023-04-12T11:47:40.710Z,9.60
2023-04-12T11:48:40.729Z,11.60
2023-04-12T11:49:40.654Z,10.70
2023-04-12T11:50:40.650Z,15.20
2023-04-12T11:51:40.657Z,15.50
2023-04-12T11:52:40.626Z,11.00
2023-04-12T11:53:40.613Z,10.10
2023-04-12T11:54:40.599Z,9.40
2023-04-12T11:55:40.671Z,10.70
2023-04-12T11:56:40.620Z,11.20
2023-04-12T11:57:40.566Z,10.90
2023-04-12T11:58:40.554Z,10.40
2023-04-12T11:59:40.545Z,9.00
2023-04-12T12:00:40.531Z,10.90
2023-04-12T12:01:40.565Z,13.30
2023-04-12T12:02:52.311Z,11.60
2023-04-12T12:03:41.726Z,9.50
2023-04-12T12:04:40.738Z,9.40
2023-04-12T12:05:40.835Z,9.90
2023-04-12T12:06:40.693Z,11.50
2023-04-12T12:07:40.474Z,8.50
2023-04-12T12:08:40.443Z,11.60
2023-04-12T12:09:40.448Z,11.10
2023-04-12T12:10:55.585Z,9.40
2023-04-12T12:11:40.406Z,9.80
2023-04-12T12:12:40.430Z,8.60
2023-04-12T12:13:41.794Z,8.90
2023-04-12T12:14:40.375Z,10.00
2023-04-12T12:15:40.371Z,9.90
2023-04-12T12:16:40.352Z,8.70
2023-04-12T12:17:40.354Z,8.10
2023-04-12T12:18:40.331Z,11.70
2023-04-12T12:19:40.331Z,10.10
2023-04-12T12:20:40.306Z,10.90
2023-04-12T12:21:40.296Z,9.40
2023-04-12T12:22:40.284Z,10.90
2023-04-12T12:23:40.284Z,9.90
2023-04-12T12:24:43.581Z,14.00
2023-04-12T12:25:40.253Z,10.50
2023-04-12T12:26:40.247Z,11.60
2023-04-12T12:27:40.288Z,9.00
2023-04-12T12:28:40.242Z,13.10
2023-04-12T12:29:40.211Z,7.50
2023-04-12T12:30:40.318Z,10.90
2023-04-12T12:31:42.730Z,9.70
2023-04-12T12:32:40.234Z,11.10
2023-04-12T12:33:46.320Z,12.60
2023-04-12T12:34:41.185Z,11.70
2023-04-12T12:35:40.203Z,10.80
2023-04-12T12:36:40.129Z,16.40
2023-04-12T12:37:40.116Z,13.50
2023-04-12T12:38:40.107Z,11.20
2023-04-12T12:39:40.102Z,39.50
2023-04-12T12:40:40.089Z,10.10
2023-04-12T12:41:40.109Z,14.40
2023-04-12T12:42:40.075Z,10.30
2023-04-12T12:43:40.063Z,9.40
2023-04-12T12:44:40.068Z,9.90
2023-04-12T12:45:40.042Z,11.20
2023-04-12T12:46:53.405Z,9.20
2023-04-12T12:47:41.117Z,9.50
2023-04-12T12:48:40.025Z,10.50
2023-04-12T12:49:39.982Z,9.80
2023-04-12T12:50:39.978Z,11.80
2023-04-12T12:51:39.968Z,10.00
2023-04-12T12:52:39.954Z,11.30
2023-04-12T12:53:39.939Z,10.80
2023-04-12T12:54:41.732Z,8.40
2023-04-12T12:55:39.914Z,8.30
2023-04-12T12:56:39.913Z,8.80
2023-04-12T12:57:39.905Z,10.50
2023-04-12T12:58:41.020Z,8.10
2023-04-12T12:59:39.872Z,10.70
2023-04-12T13:00:39.904Z,8.90